sensor_id;sensor_type;location;lat;lon;timestamp;temperature;humidity
12948;DHT22;6539;49.476;8.484;2022-10-31T00:00:29;17.00;99.90
12948;DHT22;6539;49.476;8.484;2022-10-31T00:03:05;17.10;99.90
12948;DHT22;6539;49.476;8.484;2022-10-31T00:05:58;17.20;99.90
12948;DHT22;6539;49.476;8.484;2022-10-31T00:08:46;16.90;99.90
12948;DHT22;6539;49.476;8.484;2022-10-31T00:12:04;17.20;99.90
12948;DHT22;6539;49.476;8.484;2022-10-31T00:14:38;16.60;99.90
12948;DHT22;6539;49.476;8.484;2022-10-31T00:17:30;17.20;99.90
12948;DHT22;6539;49.476;8.484;2022-10-31T00:20:31;16.80;99.90
12948;DHT22;6539;49.476;8.484;2022-10-31T00:23:15;16.70;99.90
12948;DHT22;6539;49.476;8.484;2022-10-31T00:26:09;20.30;99.90
12948;DHT22;6539;49.476;8.484;2022-10-31T00:28:47;16.80;99.90
12948;DHT22;6539;49.476;8.484;2022-10-31T00:31:35;16.80;99.90
12948;DHT22;6539;49.476;8.484;2022-10-31T00:34:06;16.80;99.90
12948;DHT22;6539;49.476;8.484;2022-10-31T00:36:58;16.80;99.90
12948;DHT22;6539;49.476;8.484;2022-10-31T00:39:32;16.70;99.90
12948;DHT22;6539;49.476;8.484;2022-10-31T00:42:11;16.70;99.90
12948;DHT22;6539;49.476;8.484;2022-10-31T00:45:23;16.70;99.90
12948;DHT22;6539;49.476;8.484;2022-10-31T00:48:07;16.80;99.90
12948;DHT22;6539;49.476;8.484;2022-10-31T00:50:36;16.70;99.90
12948;DHT22;6539;49.476;8.484;2022-10-31T00:53:21;16.70;99.90
12948;DHT22;6539;49.476;8.484;2022-10-31T00:56:15;16.80;99.90
12948;DHT22;6539;49.476;8.484;2022-10-31T00:59:09;16.60;99.90
12948;DHT22;6539;49.476;8.484;2022-10-31T01:02:07;16.60;99.90
12948;DHT22;6539;49.476;8.484;2022-10-31T01:04:59;16.80;99.90
12948;DHT22;6539;49.476;8.484;2022-10-31T01:11:24;16.70;99.90
12948;DHT22;6539;49.476;8.484;2022-10-31T01:13:56;16.40;99.90
12948;DHT22;6539;49.476;8.484;2022-10-31T01:16:28;16.50;99.90
12948;DHT22;6539;49.476;8.484;2022-10-31T01:18:59;16.80;99.90
12948;DHT22;6539;49.476;8.484;2022-10-31T01:21:29;16.80;99.90
12948;DHT22;6539;49.476;8.484;2022-10-31T01:24:04;16.60;99.90
12948;DHT22;6539;49.476;8.484;2022-10-31T01:26:36;16.60;99.90
12948;DHT22;6539;49.476;8.484;2022-10-31T01:29:23;16.80;99.90
12948;DHT22;6539;49.476;8.484;2022-10-31T01:32:06;16.70;99.90
12948;DHT22;6539;49.476;8.484;2022-10-31T01:34:37;16.70;99.90
12948;DHT22;6539;49.476;8.484;2022-10-31T01:37:29;16.70;99.90
12948;DHT22;6539;49.476;8.484;2022-10-31T01:39:56;16.60;99.90
12948;DHT22;6539;49.476;8.484;2022-10-31T01:42:25;16.70;99.90
12948;DHT22;6539;49.476;8.484;2022-10-31T01:45:01;16.90;99.90
12948;DHT22;6539;49.476;8.484;2022-10-31T01:47:39;16.80;99.90
12948;DHT22;6539;49.476;8.484;2022-10-31T01:50:35;16.60;99.90
12948;DHT22;6539;49.476;8.484;2022-10-31T01:53:12;16.50;99.90
12948;DHT22;6539;49.476;8.484;2022-10-31T01:55:53;16.60;99.90
12948;DHT22;6539;49.476;8.484;2022-10-31T01:58:30;16.40;99.90
12948;DHT22;6539;49.476;8.484;2022-10-31T02:01:20;16.50;99.90
12948;DHT22;6539;49.476;8.484;2022-10-31T02:04:19;16.40;99.90
12948;DHT22;6539;49.476;8.484;2022-10-31T02:07:12;16.40;99.90
12948;DHT22;6539;49.476;8.484;2022-10-31T02:10:22;16.60;99.90
12948;DHT22;6539;49.476;8.484;2022-10-31T02:12:55;16.50;99.90
12948;DHT22;6539;49.476;8.484;2022-10-31T02:15:51;16.60;99.90
12948;DHT22;6539;49.476;8.484;2022-10-31T02:18:30;16.40;99.90
12948;DHT22;6539;49.476;8.484;2022-10-31T02:31:34;16.20;99.90
12948;DHT22;6539;49.476;8.484;2022-10-31T02:34:41;16.20;99.90
12948;DHT22;6539;49.476;8.484;2022-10-31T02:38:14;15.90;99.90
12948;DHT22;6539;49.476;8.484;2022-10-31T02:47:05;16.10;99.90
12948;DHT22;6539;49.476;8.484;2022-10-31T02:49:43;16.00;99.90
12948;DHT22;6539;49.476;8.484;2022-10-31T02:52:17;16.00;99.90
12948;DHT22;6539;49.476;8.484;2022-10-31T02:54:48;15.90;99.90
12948;DHT22;6539;49.476;8.484;2022-10-31T02:57:28;16.00;99.90
12948;DHT22;6539;49.476;8.484;2022-10-31T03:00:07;15.90;99.90
12948;DHT22;6539;49.476;8.484;2022-10-31T03:05:54;15.70;99.90
12948;DHT22;6539;49.476;8.484;2022-10-31T03:08:35;15.80;99.90
12948;DHT22;6539;49.476;8.484;2022-10-31T03:11:32;16.30;99.90
12948;DHT22;6539;49.476;8.484;2022-10-31T03:14:14;16.00;99.90
12948;DHT22;6539;49.476;8.484;2022-10-31T03:16:50;15.80;99.90
12948;DHT22;6539;49.476;8.484;2022-10-31T03:19:29;16.10;99.90
12948;DHT22;6539;49.476;8.484;2022-10-31T03:24:37;15.90;99.90
12948;DHT22;6539;49.476;8.484;2022-10-31T03:27:07;16.10;99.90
12948;DHT22;6539;49.476;8.484;2022-10-31T03:29:36;16.20;99.90
12948;DHT22;6539;49.476;8.484;2022-10-31T03:32:22;15.90;99.90
12948;DHT22;6539;49.476;8.484;2022-10-31T03:34:58;16.00;99.90
12948;DHT22;6539;49.476;8.484;2022-10-31T03:37:27;16.00;99.90
12948;DHT22;6539;49.476;8.484;2022-10-31T03:39:58;16.00;99.90
12948;DHT22;6539;49.476;8.484;2022-10-31T03:42:30;16.40;99.90
12948;DHT22;6539;49.476;8.484;2022-10-31T03:45:11;15.90;99.90
12948;DHT22;6539;49.476;8.484;2022-10-31T03:47:41;16.10;99.90
12948;DHT22;6539;49.476;8.484;2022-10-31T03:50:12;16.20;99.90
12948;DHT22;6539;49.476;8.484;2022-10-31T03:52:46;16.00;99.90
12948;DHT22;6539;49.476;8.484;2022-10-31T03:55:28;16.00;99.90
12948;DHT22;6539;49.476;8.484;2022-10-31T03:58:05;15.70;99.90
12948;DHT22;6539;49.476;8.484;2022-10-31T04:00:38;16.00;99.90
12948;DHT22;6539;49.476;8.484;2022-10-31T04:03:17;16.10;99.90
12948;DHT22;6539;49.476;8.484;2022-10-31T04:05:50;16.10;99.90
12948;DHT22;6539;49.476;8.484;2022-10-31T04:08:21;16.10;99.90
12948;DHT22;6539;49.476;8.484;2022-10-31T04:10:52;16.10;99.90
12948;DHT22;6539;49.476;8.484;2022-10-31T04:13:24;15.80;99.90
12948;DHT22;6539;49.476;8.484;2022-10-31T04:15:55;15.60;99.90
12948;DHT22;6539;49.476;8.484;2022-10-31T04:18:26;15.60;99.90
12948;DHT22;6539;49.476;8.484;2022-10-31T04:21:07;15.90;99.90
12948;DHT22;6539;49.476;8.484;2022-10-31T04:23:35;16.00;99.90
12948;DHT22;6539;49.476;8.484;2022-10-31T04:26:02;15.90;99.90
12948;DHT22;6539;49.476;8.484;2022-10-31T04:28:28;15.90;99.90
12948;DHT22;6539;49.476;8.484;2022-10-31T04:30:58;15.90;99.90
12948;DHT22;6539;49.476;8.484;2022-10-31T04:35:49;16.00;99.90
12948;DHT22;6539;49.476;8.484;2022-10-31T04:38:15;16.10;99.90
12948;DHT22;6539;49.476;8.484;2022-10-31T04:40:41;16.10;99.90
12948;DHT22;6539;49.476;8.484;2022-10-31T04:43:09;16.00;99.90
12948;DHT22;6539;49.476;8.484;2022-10-31T04:45:38;15.90;99.90
12948;DHT22;6539;49.476;8.484;2022-10-31T04:48:04;15.90;99.90
12948;DHT22;6539;49.476;8.484;2022-10-31T04:50:30;15.60;99.90
12948;DHT22;6539;49.476;8.484;2022-10-31T04:52:55;15.50;99.90
12948;DHT22;6539;49.476;8.484;2022-10-31T04:55:21;15.70;99.90
12948;DHT22;6539;49.476;8.484;2022-10-31T04:57:48;15.90;99.90
12948;DHT22;6539;49.476;8.484;2022-10-31T05:00:20;15.70;99.90
12948;DHT22;6539;49.476;8.484;2022-10-31T05:02:51;15.50;99.90
12948;DHT22;6539;49.476;8.484;2022-10-31T05:05:20;15.40;99.90
12948;DHT22;6539;49.476;8.484;2022-10-31T05:07:48;15.90;99.90
12948;DHT22;6539;49.476;8.484;2022-10-31T05:10:19;15.70;99.90
12948;DHT22;6539;49.476;8.484;2022-10-31T05:12:51;15.60;99.90
12948;DHT22;6539;49.476;8.484;2022-10-31T05:15:20;15.50;99.90
12948;DHT22;6539;49.476;8.484;2022-10-31T05:17:50;15.70;99.90
12948;DHT22;6539;49.476;8.484;2022-10-31T05:20:20;15.80;99.90
12948;DHT22;6539;49.476;8.484;2022-10-31T05:22:49;15.30;99.90
12948;DHT22;6539;49.476;8.484;2022-10-31T05:25:18;15.30;99.90
12948;DHT22;6539;49.476;8.484;2022-10-31T05:27:48;15.70;99.90
12948;DHT22;6539;49.476;8.484;2022-10-31T05:30:18;15.30;99.90
12948;DHT22;6539;49.476;8.484;2022-10-31T05:32:47;15.60;99.90
12948;DHT22;6539;49.476;8.484;2022-10-31T05:35:19;15.50;99.90
12948;DHT22;6539;49.476;8.484;2022-10-31T05:37:54;15.30;99.90
12948;DHT22;6539;49.476;8.484;2022-10-31T05:40:24;15.10;99.90
12948;DHT22;6539;49.476;8.484;2022-10-31T05:42:56;15.20;99.90
12948;DHT22;6539;49.476;8.484;2022-10-31T05:45:30;15.40;99.90
12948;DHT22;6539;49.476;8.484;2022-10-31T05:48:00;15.50;99.90
12948;DHT22;6539;49.476;8.484;2022-10-31T05:50:28;15.20;99.90
12948;DHT22;6539;49.476;8.484;2022-10-31T05:53:05;15.20;99.90
12948;DHT22;6539;49.476;8.484;2022-10-31T05:55:31;15.20;99.90
12948;DHT22;6539;49.476;8.484;2022-10-31T05:57:58;15.50;99.90
12948;DHT22;6539;49.476;8.484;2022-10-31T06:00:27;15.40;99.90
12948;DHT22;6539;49.476;8.484;2022-10-31T06:03:05;15.30;99.90
12948;DHT22;6539;49.476;8.484;2022-10-31T06:05:32;15.10;99.90
12948;DHT22;6539;49.476;8.484;2022-10-31T06:07:58;15.30;99.90
12948;DHT22;6539;49.476;8.484;2022-10-31T06:10:27;15.00;99.90
12948;DHT22;6539;49.476;8.484;2022-10-31T06:12:55;15.30;99.90
12948;DHT22;6539;49.476;8.484;2022-10-31T06:15:22;14.90;99.90
12948;DHT22;6539;49.476;8.484;2022-10-31T06:18:00;15.20;99.90
12948;DHT22;6539;49.476;8.484;2022-10-31T06:20:33;14.90;99.90
12948;DHT22;6539;49.476;8.484;2022-10-31T06:22:59;15.00;99.90
12948;DHT22;6539;49.476;8.484;2022-10-31T06:25:26;14.60;99.90
12948;DHT22;6539;49.476;8.484;2022-10-31T06:27:55;14.70;99.90
12948;DHT22;6539;49.476;8.484;2022-10-31T06:30:21;14.70;99.90
12948;DHT22;6539;49.476;8.484;2022-10-31T06:32:47;15.10;99.90
12948;DHT22;6539;49.476;8.484;2022-10-31T06:37:39;14.80;99.90
12948;DHT22;6539;49.476;8.484;2022-10-31T06:40:07;14.60;99.90
12948;DHT22;6539;49.476;8.484;2022-10-31T06:42:34;14.60;99.90
12948;DHT22;6539;49.476;8.484;2022-10-31T06:47:28;15.10;99.90
12948;DHT22;6539;49.476;8.484;2022-10-31T06:49:54;15.00;99.90
12948;DHT22;6539;49.476;8.484;2022-10-31T06:52:22;14.90;99.90
12948;DHT22;6539;49.476;8.484;2022-10-31T06:54:48;14.60;99.90
12948;DHT22;6539;49.476;8.484;2022-10-31T06:57:17;15.10;99.90
12948;DHT22;6539;49.476;8.484;2022-10-31T07:02:10;14.80;99.90
12948;DHT22;6539;49.476;8.484;2022-10-31T07:04:36;14.90;99.90
12948;DHT22;6539;49.476;8.484;2022-10-31T07:07:04;14.90;99.90
12948;DHT22;6539;49.476;8.484;2022-10-31T07:09:30;15.10;99.90
12948;DHT22;6539;49.476;8.484;2022-10-31T07:12:00;15.00;99.90
12948;DHT22;6539;49.476;8.484;2022-10-31T07:14:26;14.90;99.90
12948;DHT22;6539;49.476;8.484;2022-10-31T07:16:51;15.40;99.90
12948;DHT22;6539;49.476;8.484;2022-10-31T07:19:20;15.20;99.90
12948;DHT22;6539;49.476;8.484;2022-10-31T07:24:14;15.60;99.90
12948;DHT22;6539;49.476;8.484;2022-10-31T07:26:39;15.70;99.90
12948;DHT22;6539;49.476;8.484;2022-10-31T07:29:07;15.70;99.90
12948;DHT22;6539;49.476;8.484;2022-10-31T07:31:33;15.50;99.90
12948;DHT22;6539;49.476;8.484;2022-10-31T07:33:59;15.30;99.90
12948;DHT22;6539;49.476;8.484;2022-10-31T07:36:25;15.70;99.90
12948;DHT22;6539;49.476;8.484;2022-10-31T07:38:53;15.70;99.90
12948;DHT22;6539;49.476;8.484;2022-10-31T07:41:18;15.60;99.90
12948;DHT22;6539;49.476;8.484;2022-10-31T07:43:44;15.80;99.90
12948;DHT22;6539;49.476;8.484;2022-10-31T07:46:13;15.70;99.90
12948;DHT22;6539;49.476;8.484;2022-10-31T07:48:39;16.20;99.90
12948;DHT22;6539;49.476;8.484;2022-10-31T07:51:05;15.90;99.90
12948;DHT22;6539;49.476;8.484;2022-10-31T07:53:32;16.10;99.90
12948;DHT22;6539;49.476;8.484;2022-10-31T07:55:58;16.30;99.90
12948;DHT22;6539;49.476;8.484;2022-10-31T07:58:26;16.20;99.90
12948;DHT22;6539;49.476;8.484;2022-10-31T08:00:54;16.40;99.90
12948;DHT22;6539;49.476;8.484;2022-10-31T08:03:25;16.30;99.90
12948;DHT22;6539;49.476;8.484;2022-10-31T08:05:53;16.30;99.90
12948;DHT22;6539;49.476;8.484;2022-10-31T08:08:19;16.80;99.90
12948;DHT22;6539;49.476;8.484;2022-10-31T08:10:47;16.50;99.90
12948;DHT22;6539;49.476;8.484;2022-10-31T08:13:16;16.90;99.90
12948;DHT22;6539;49.476;8.484;2022-10-31T08:15:42;17.20;99.90
12948;DHT22;6539;49.476;8.484;2022-10-31T08:18:13;17.50;99.90
12948;DHT22;6539;49.476;8.484;2022-10-31T08:20:42;17.90;99.90
12948;DHT22;6539;49.476;8.484;2022-10-31T08:23:10;18.40;99.90
12948;DHT22;6539;49.476;8.484;2022-10-31T08:25:39;19.20;99.90
12948;DHT22;6539;49.476;8.484;2022-10-31T08:28:08;19.00;99.90
12948;DHT22;6539;49.476;8.484;2022-10-31T08:30:37;19.60;99.90
12948;DHT22;6539;49.476;8.484;2022-10-31T08:33:06;19.60;99.90
12948;DHT22;6539;49.476;8.484;2022-10-31T08:35:42;19.60;99.90
12948;DHT22;6539;49.476;8.484;2022-10-31T08:38:09;19.90;99.90
12948;DHT22;6539;49.476;8.484;2022-10-31T08:40:37;20.20;99.90
12948;DHT22;6539;49.476;8.484;2022-10-31T08:43:06;20.20;99.90
12948;DHT22;6539;49.476;8.484;2022-10-31T08:45:39;20.40;99.90
12948;DHT22;6539;49.476;8.484;2022-10-31T08:48:08;21.20;99.90
12948;DHT22;6539;49.476;8.484;2022-10-31T08:50:36;21.20;99.90
12948;DHT22;6539;49.476;8.484;2022-10-31T08:53:09;21.30;99.90
12948;DHT22;6539;49.476;8.484;2022-10-31T08:55:43;20.70;99.90
12948;DHT22;6539;49.476;8.484;2022-10-31T08:58:17;20.90;99.90
12948;DHT22;6539;49.476;8.484;2022-10-31T09:00:47;20.70;99.90
12948;DHT22;6539;49.476;8.484;2022-10-31T09:03:17;20.80;99.90
12948;DHT22;6539;49.476;8.484;2022-10-31T09:05:44;20.80;99.90
12948;DHT22;6539;49.476;8.484;2022-10-31T09:08:14;20.60;99.90
12948;DHT22;6539;49.476;8.484;2022-10-31T09:10:41;20.80;99.90
12948;DHT22;6539;49.476;8.484;2022-10-31T09:13:10;20.90;99.90
12948;DHT22;6539;49.476;8.484;2022-10-31T09:15:41;20.90;99.90
12948;DHT22;6539;49.476;8.484;2022-10-31T09:18:09;20.80;99.90
12948;DHT22;6539;49.476;8.484;2022-10-31T09:20:39;21.00;99.90
12948;DHT22;6539;49.476;8.484;2022-10-31T09:23:10;20.90;99.90
12948;DHT22;6539;49.476;8.484;2022-10-31T09:25:37;20.80;99.90
12948;DHT22;6539;49.476;8.484;2022-10-31T09:28:05;20.80;99.90
12948;DHT22;6539;49.476;8.484;2022-10-31T09:30:36;20.80;99.90
12948;DHT22;6539;49.476;8.484;2022-10-31T09:33:08;21.20;99.90
12948;DHT22;6539;49.476;8.484;2022-10-31T09:35:38;20.90;99.90
12948;DHT22;6539;49.476;8.484;2022-10-31T09:38:13;21.20;99.90
12948;DHT22;6539;49.476;8.484;2022-10-31T09:50:36;21.00;99.90
12948;DHT22;6539;49.476;8.484;2022-10-31T09:53:48;21.00;99.90
12948;DHT22;6539;49.476;8.484;2022-10-31T09:56:18;20.70;99.90
12948;DHT22;6539;49.476;8.484;2022-10-31T09:58:58;20.70;99.90
12948;DHT22;6539;49.476;8.484;2022-10-31T10:04:44;20.60;99.90
12948;DHT22;6539;49.476;8.484;2022-10-31T10:16:25;21.30;99.90
12948;DHT22;6539;49.476;8.484;2022-10-31T10:22:18;21.60;99.90
12948;DHT22;6539;49.476;8.484;2022-10-31T10:31:37;22.30;99.90
12948;DHT22;6539;49.476;8.484;2022-10-31T10:34:41;22.30;99.90
12948;DHT22;6539;49.476;8.484;2022-10-31T10:37:32;22.30;99.90
12948;DHT22;6539;49.476;8.484;2022-10-31T10:43:23;22.00;99.90
12948;DHT22;6539;49.476;8.484;2022-10-31T10:49:31;21.80;99.90
12948;DHT22;6539;49.476;8.484;2022-10-31T10:57:56;22.10;99.90
12948;DHT22;6539;49.476;8.484;2022-10-31T11:00:29;22.00;99.90
12948;DHT22;6539;49.476;8.484;2022-10-31T11:03:09;22.00;99.90
12948;DHT22;6539;49.476;8.484;2022-10-31T11:05:55;22.00;99.90
12948;DHT22;6539;49.476;8.484;2022-10-31T11:08:31;21.80;99.90
12948;DHT22;6539;49.476;8.484;2022-10-31T11:13:59;21.40;99.90
12948;DHT22;6539;49.476;8.484;2022-10-31T11:16:40;21.40;99.90
12948;DHT22;6539;49.476;8.484;2022-10-31T11:21:47;21.30;99.90
12948;DHT22;6539;49.476;8.484;2022-10-31T11:24:16;21.40;99.90
12948;DHT22;6539;49.476;8.484;2022-10-31T11:26:46;21.40;99.90
12948;DHT22;6539;49.476;8.484;2022-10-31T11:29:23;21.30;99.90
12948;DHT22;6539;49.476;8.484;2022-10-31T11:31:52;21.30;99.90
12948;DHT22;6539;49.476;8.484;2022-10-31T11:39:59;21.20;99.90
12948;DHT22;6539;49.476;8.484;2022-10-31T11:42:37;21.10;99.90
12948;DHT22;6539;49.476;8.484;2022-10-31T11:47:51;21.10;99.90
12948;DHT22;6539;49.476;8.484;2022-10-31T11:50:22;21.00;99.90
12948;DHT22;6539;49.476;8.484;2022-10-31T11:53:20;21.00;99.90
12948;DHT22;6539;49.476;8.484;2022-10-31T11:56:19;21.00;99.90
12948;DHT22;6539;49.476;8.484;2022-10-31T11:58:55;21.10;99.90
12948;DHT22;6539;49.476;8.484;2022-10-31T12:01:25;21.00;99.90
12948;DHT22;6539;49.476;8.484;2022-10-31T12:04:10;21.10;99.90
12948;DHT22;6539;49.476;8.484;2022-10-31T12:06:42;21.00;99.90
12948;DHT22;6539;49.476;8.484;2022-10-31T12:09:24;21.00;99.90
12948;DHT22;6539;49.476;8.484;2022-10-31T12:24:09;20.80;99.90
12948;DHT22;6539;49.476;8.484;2022-10-31T12:26:54;20.80;99.90
12948;DHT22;6539;49.476;8.484;2022-10-31T12:33:02;20.60;99.90
12948;DHT22;6539;49.476;8.484;2022-10-31T12:35:51;20.20;99.90
12948;DHT22;6539;49.476;8.484;2022-10-31T12:50:38;20.50;99.90
12948;DHT22;6539;49.476;8.484;2022-10-31T12:59:01;20.50;99.90
12948;DHT22;6539;49.476;8.484;2022-10-31T13:01:36;20.50;99.90
12948;DHT22;6539;49.476;8.484;2022-10-31T13:04:33;20.40;99.90
12948;DHT22;6539;49.476;8.484;2022-10-31T13:07:18;20.50;99.90
12948;DHT22;6539;49.476;8.484;2022-10-31T13:12:43;20.40;99.90
12948;DHT22;6539;49.476;8.484;2022-10-31T13:15:23;20.30;99.90
12948;DHT22;6539;49.476;8.484;2022-10-31T13:18:00;20.30;99.90
12948;DHT22;6539;49.476;8.484;2022-10-31T13:20:39;20.20;99.90
12948;DHT22;6539;49.476;8.484;2022-10-31T13:23:17;20.10;99.90
12948;DHT22;6539;49.476;8.484;2022-10-31T13:25:54;20.00;99.90
12948;DHT22;6539;49.476;8.484;2022-10-31T13:30:58;20.20;99.90
12948;DHT22;6539;49.476;8.484;2022-10-31T13:36:39;20.10;99.90
12948;DHT22;6539;49.476;8.484;2022-10-31T13:39:27;20.20;99.90
12948;DHT22;6539;49.476;8.484;2022-10-31T13:42:13;20.20;99.90
12948;DHT22;6539;49.476;8.484;2022-10-31T13:44:47;20.10;99.90
12948;DHT22;6539;49.476;8.484;2022-10-31T13:47:28;20.00;99.90
12948;DHT22;6539;49.476;8.484;2022-10-31T13:50:18;20.40;99.90
12948;DHT22;6539;49.476;8.484;2022-10-31T13:52:49;20.20;99.90
12948;DHT22;6539;49.476;8.484;2022-10-31T13:55:38;20.40;99.90
12948;DHT22;6539;49.476;8.484;2022-10-31T13:58:29;20.60;99.90
12948;DHT22;6539;49.476;8.484;2022-10-31T14:01:21;20.60;99.90
12948;DHT22;6539;49.476;8.484;2022-10-31T14:06:41;20.60;99.90
12948;DHT22;6539;49.476;8.484;2022-10-31T14:09:23;20.50;99.90
12948;DHT22;6539;49.476;8.484;2022-10-31T14:11:55;20.50;99.90
12948;DHT22;6539;49.476;8.484;2022-10-31T14:14:33;20.50;99.90
12948;DHT22;6539;49.476;8.484;2022-10-31T14:17:05;20.40;99.90
12948;DHT22;6539;49.476;8.484;2022-10-31T14:22:39;20.40;99.90
12948;DHT22;6539;49.476;8.484;2022-10-31T14:27:57;20.50;99.90
12948;DHT22;6539;49.476;8.484;2022-10-31T14:30:26;20.40;99.90
12948;DHT22;6539;49.476;8.484;2022-10-31T14:33:15;20.30;99.90
12948;DHT22;6539;49.476;8.484;2022-10-31T14:38:43;20.00;99.90
12948;DHT22;6539;49.476;8.484;2022-10-31T14:41:55;20.00;99.90
12948;DHT22;6539;49.476;8.484;2022-10-31T14:47:21;19.90;99.90
12948;DHT22;6539;49.476;8.484;2022-10-31T14:50:24;19.80;99.90
12948;DHT22;6539;49.476;8.484;2022-10-31T14:52:57;19.70;99.90
12948;DHT22;6539;49.476;8.484;2022-10-31T14:55:29;19.70;99.90
12948;DHT22;6539;49.476;8.484;2022-10-31T14:58:02;19.30;99.90
12948;DHT22;6539;49.476;8.484;2022-10-31T15:00:32;19.60;99.90
12948;DHT22;6539;49.476;8.484;2022-10-31T15:03:12;19.80;99.90
12948;DHT22;6539;49.476;8.484;2022-10-31T15:05:52;19.30;99.90
12948;DHT22;6539;49.476;8.484;2022-10-31T15:08:39;19.70;99.90
12948;DHT22;6539;49.476;8.484;2022-10-31T15:13:50;19.70;99.90
12948;DHT22;6539;49.476;8.484;2022-10-31T15:16:31;19.70;99.90
12948;DHT22;6539;49.476;8.484;2022-10-31T15:19:06;19.60;99.90
12948;DHT22;6539;49.476;8.484;2022-10-31T15:21:38;19.50;99.90
12948;DHT22;6539;49.476;8.484;2022-10-31T15:24:14;19.50;99.90
12948;DHT22;6539;49.476;8.484;2022-10-31T15:26:51;19.50;99.90
12948;DHT22;6539;49.476;8.484;2022-10-31T15:29:23;19.50;99.90
12948;DHT22;6539;49.476;8.484;2022-10-31T15:31:55;19.50;99.90
12948;DHT22;6539;49.476;8.484;2022-10-31T15:34:40;19.40;99.90
12948;DHT22;6539;49.476;8.484;2022-10-31T15:37:13;19.40;99.90
12948;DHT22;6539;49.476;8.484;2022-10-31T15:39:42;19.10;99.90
12948;DHT22;6539;49.476;8.484;2022-10-31T15:42:33;19.30;99.90
12948;DHT22;6539;49.476;8.484;2022-10-31T15:47:35;19.30;99.90
12948;DHT22;6539;49.476;8.484;2022-10-31T15:50:06;19.20;99.90
12948;DHT22;6539;49.476;8.484;2022-10-31T15:52:47;19.20;99.90
12948;DHT22;6539;49.476;8.484;2022-10-31T15:55:27;19.10;99.90
12948;DHT22;6539;49.476;8.484;2022-10-31T15:58:09;18.80;99.90
12948;DHT22;6539;49.476;8.484;2022-10-31T16:00:39;19.10;99.90
12948;DHT22;6539;49.476;8.484;2022-10-31T16:05:45;18.70;99.90
12948;DHT22;6539;49.476;8.484;2022-10-31T16:11:15;18.90;99.90
12948;DHT22;6539;49.476;8.484;2022-10-31T16:13:58;18.90;99.90
12948;DHT22;6539;49.476;8.484;2022-10-31T16:16:28;18.90;99.90
12948;DHT22;6539;49.476;8.484;2022-10-31T16:18:59;18.80;99.90
12948;DHT22;6539;49.476;8.484;2022-10-31T16:21:37;18.80;99.90
12948;DHT22;6539;49.476;8.484;2022-10-31T16:24:24;18.70;99.90
12948;DHT22;6539;49.476;8.484;2022-10-31T16:26:57;18.60;99.90
12948;DHT22;6539;49.476;8.484;2022-10-31T16:29:44;18.50;99.90
12948;DHT22;6539;49.476;8.484;2022-10-31T16:32:50;18.70;99.90
12948;DHT22;6539;49.476;8.484;2022-10-31T16:35:27;18.50;99.90
12948;DHT22;6539;49.476;8.484;2022-10-31T16:38:04;18.50;99.90
12948;DHT22;6539;49.476;8.484;2022-10-31T16:40:32;18.40;99.90
12948;DHT22;6539;49.476;8.484;2022-10-31T16:43:00;18.60;99.90
12948;DHT22;6539;49.476;8.484;2022-10-31T16:45:29;18.60;99.90
12948;DHT22;6539;49.476;8.484;2022-10-31T16:48:04;18.60;99.90
12948;DHT22;6539;49.476;8.484;2022-10-31T16:50:32;18.30;99.90
12948;DHT22;6539;49.476;8.484;2022-10-31T16:52:58;18.70;99.90
12948;DHT22;6539;49.476;8.484;2022-10-31T16:55:24;18.40;99.90
12948;DHT22;6539;49.476;8.484;2022-10-31T16:57:55;18.40;99.90
12948;DHT22;6539;49.476;8.484;2022-10-31T17:00:26;18.20;99.90
12948;DHT22;6539;49.476;8.484;2022-10-31T17:02:56;18.30;99.90
12948;DHT22;6539;49.476;8.484;2022-10-31T17:05:23;18.60;99.90
12948;DHT22;6539;49.476;8.484;2022-10-31T17:07:57;18.70;99.90
12948;DHT22;6539;49.476;8.484;2022-10-31T17:10:23;18.50;99.90
12948;DHT22;6539;49.476;8.484;2022-10-31T17:12:52;18.50;99.90
12948;DHT22;6539;49.476;8.484;2022-10-31T17:15:24;18.50;99.90
12948;DHT22;6539;49.476;8.484;2022-10-31T17:17:52;18.50;99.90
12948;DHT22;6539;49.476;8.484;2022-10-31T17:20:26;18.50;99.90
12948;DHT22;6539;49.476;8.484;2022-10-31T17:22:55;18.50;99.90
12948;DHT22;6539;49.476;8.484;2022-10-31T17:25:26;18.50;99.90
12948;DHT22;6539;49.476;8.484;2022-10-31T17:27:54;18.50;99.90
12948;DHT22;6539;49.476;8.484;2022-10-31T17:30:22;18.40;99.90
12948;DHT22;6539;49.476;8.484;2022-10-31T17:32:51;18.30;99.90
12948;DHT22;6539;49.476;8.484;2022-10-31T17:35:20;18.50;99.90
12948;DHT22;6539;49.476;8.484;2022-10-31T17:37:51;18.30;99.90
12948;DHT22;6539;49.476;8.484;2022-10-31T17:40:19;18.20;99.90
12948;DHT22;6539;49.476;8.484;2022-10-31T17:42:54;18.40;99.90
12948;DHT22;6539;49.476;8.484;2022-10-31T17:45:22;18.50;99.90
12948;DHT22;6539;49.476;8.484;2022-10-31T17:47:51;18.40;99.90
12948;DHT22;6539;49.476;8.484;2022-10-31T17:50:22;18.30;99.90
12948;DHT22;6539;49.476;8.484;2022-10-31T17:52:54;18.40;99.90
12948;DHT22;6539;49.476;8.484;2022-10-31T17:55:22;18.40;99.90
12948;DHT22;6539;49.476;8.484;2022-10-31T17:57:51;18.20;99.90
12948;DHT22;6539;49.476;8.484;2022-10-31T18:00:18;18.40;99.90
12948;DHT22;6539;49.476;8.484;2022-10-31T18:02:49;18.20;99.90
12948;DHT22;6539;49.476;8.484;2022-10-31T18:05:17;18.20;99.90
12948;DHT22;6539;49.476;8.484;2022-10-31T18:07:43;18.40;99.90
12948;DHT22;6539;49.476;8.484;2022-10-31T18:10:09;18.30;99.90
12948;DHT22;6539;49.476;8.484;2022-10-31T18:12:36;18.80;99.90
12948;DHT22;6539;49.476;8.484;2022-10-31T18:15:03;19.00;99.90
12948;DHT22;6539;49.476;8.484;2022-10-31T18:17:32;18.60;99.90
12948;DHT22;6539;49.476;8.484;2022-10-31T18:19:58;18.70;99.90
12948;DHT22;6539;49.476;8.484;2022-10-31T18:22:26;19.60;99.90
12948;DHT22;6539;49.476;8.484;2022-10-31T18:24:54;18.60;99.90
12948;DHT22;6539;49.476;8.484;2022-10-31T18:27:22;18.30;99.90
12948;DHT22;6539;49.476;8.484;2022-10-31T18:29:48;18.40;99.90
12948;DHT22;6539;49.476;8.484;2022-10-31T18:32:14;18.70;99.90
12948;DHT22;6539;49.476;8.484;2022-10-31T18:34:40;18.50;99.90
12948;DHT22;6539;49.476;8.484;2022-10-31T18:37:09;18.40;99.90
12948;DHT22;6539;49.476;8.484;2022-10-31T18:39:37;18.40;99.90
12948;DHT22;6539;49.476;8.484;2022-10-31T18:44:29;18.20;99.90
12948;DHT22;6539;49.476;8.484;2022-10-31T18:46:56;18.10;99.90
12948;DHT22;6539;49.476;8.484;2022-10-31T18:49:27;18.00;99.90
12948;DHT22;6539;49.476;8.484;2022-10-31T18:51:57;17.60;99.90
12948;DHT22;6539;49.476;8.484;2022-10-31T18:54:23;17.80;99.90
12948;DHT22;6539;49.476;8.484;2022-10-31T18:56:49;17.90;99.90
12948;DHT22;6539;49.476;8.484;2022-10-31T18:59:14;17.80;99.90
12948;DHT22;6539;49.476;8.484;2022-10-31T19:01:40;17.80;99.90
12948;DHT22;6539;49.476;8.484;2022-10-31T19:04:13;17.80;99.90
12948;DHT22;6539;49.476;8.484;2022-10-31T19:06:39;17.80;99.90
12948;DHT22;6539;49.476;8.484;2022-10-31T19:09:12;18.00;99.90
12948;DHT22;6539;49.476;8.484;2022-10-31T19:11:42;17.80;99.90
12948;DHT22;6539;49.476;8.484;2022-10-31T19:14:11;17.90;99.90
12948;DHT22;6539;49.476;8.484;2022-10-31T19:16:38;17.90;99.90